Time;durP1;ratioP1;P1;durP2;ratioP2;P2;SDS_P1;SDS_P2;PMS_P1;PMS_P2;Temp;Humidity;BMP_temperature;BMP_pressure;BME280_temperature;BME280_humidity;BME280_pressure;Samples;Min_cycle;Max_cycle;Signal;HPM_P1;HPM_P2
2021/06/02 00:01:19;;;;;;;4.50;3.60;;;14.80;99.90;;;;;;5048566;28;20028;-74
2021/06/02 00:03:47;;;;;;;5.13;3.78;;;14.70;99.90;;;;;;5052530;28;20072;-74
2021/06/02 00:06:12;;;;;;;4.43;3.92;;;14.60;99.90;;;;;;5051263;28;20103;-74
2021/06/02 00:08:38;;;;;;;4.68;3.50;;;14.60;99.90;;;;;;5051955;28;20520;-74
2021/06/02 00:11:07;;;;;;;4.55;3.50;;;14.50;99.90;;;;;;5051478;28;20488;-74
2021/06/02 00:13:35;;;;;;;4.55;3.47;;;14.50;99.90;;;;;;5054572;28;20021;-74
2021/06/02 00:16:02;;;;;;;4.82;3.40;;;14.50;99.90;;;;;;5051307;28;20028;-74
2021/06/02 00:18:28;;;;;;;5.45;4.10;;;14.50;99.90;;;;;;5051814;28;20096;-74
2021/06/02 00:20:54;;;;;;;4.63;4.00;;;14.30;99.90;;;;;;5044016;28;20213;-74
2021/06/02 00:23:21;;;;;;;5.03;4.13;;;14.20;99.90;;;;;;5051581;28;20021;-74
2021/06/02 00:25:48;;;;;;;5.82;4.38;;;14.10;99.90;;;;;;5051790;28;20024;-74
2021/06/02 00:28:15;;;;;;;4.55;4.15;;;14.00;99.90;;;;;;5041989;28;20009;-74
2021/06/02 00:30:44;;;;;;;7.53;3.60;;;14.10;99.90;;;;;;5052647;28;20078;-74
2021/06/02 00:33:10;;;;;;;4.88;4.18;;;14.00;99.90;;;;;;5041534;28;20553;-74
2021/06/02 00:35:37;;;;;;;5.53;3.70;;;14.00;99.90;;;;;;5051438;28;20033;-75
2021/06/02 00:38:03;;;;;;;5.50;4.22;;;14.10;99.90;;;;;;5033322;28;20075;-74
2021/06/02 00:40:46;;;;;;;4.78;3.70;;;13.80;99.90;;;;;;5050991;28;20032;-75
2021/06/02 00:43:14;;;;;;;5.20;4.03;;;13.60;99.90;;;;;;5044583;28;20028;-75
2021/06/02 00:45:40;;;;;;;4.32;3.92;;;13.40;99.90;;;;;;5046781;28;20091;-74
2021/06/02 00:48:06;;;;;;;4.43;3.92;;;13.40;99.90;;;;;;5053307;28;20029;-74
2021/06/02 00:50:32;;;;;;;5.55;3.95;;;13.30;99.90;;;;;;5044163;28;20447;-74
2021/06/02 00:52:57;;;;;;;5.07;3.70;;;13.50;99.90;;;;;;5051112;28;20051;-74
2021/06/02 00:55:23;;;;;;;4.47;3.83;;;13.50;99.90;;;;;;5057214;28;20044;-75
2021/06/02 00:57:53;;;;;;;4.85;4.05;;;13.60;99.90;;;;;;5051492;28;20555;-74
2021/06/02 01:00:19;;;;;;;5.75;4.00;;;13.30;99.90;;;;;;5034403;28;20378;-74
2021/06/02 01:02:52;;;;;;;4.55;3.80;;;13.40;99.90;;;;;;5051947;28;20021;-74
2021/06/02 01:05:22;;;;;;;5.97;4.07;;;13.20;99.90;;;;;;5035477;28;20020;-74
2021/06/02 01:07:51;;;;;;;5.90;3.95;;;13.10;99.90;;;;;;5052471;28;20039;-74
2021/06/02 01:10:18;;;;;;;5.05;4.53;;;13.10;99.90;;;;;;5051680;28;20388;-75
2021/06/02 01:12:49;;;;;;;7.28;4.70;;;13.10;99.90;;;;;;5054676;28;20032;-75
2021/06/02 01:15:15;;;;;;;5.05;4.55;;;12.90;99.90;;;;;;5053381;28;20024;-74
2021/06/02 01:17:42;;;;;;;4.57;4.10;;;12.90;99.90;;;;;;5055539;28;20028;-75
2021/06/02 01:20:08;;;;;;;4.07;3.72;;;12.80;99.90;;;;;;5054381;28;20091;-75
2021/06/02 01:22:35;;;;;;;5.63;4.32;;;12.60;99.90;;;;;;5058307;28;20039;-75
2021/06/02 01:25:10;;;;;;;4.47;4.07;;;12.50;99.90;;;;;;5051949;28;20194;-75
2021/06/02 01:27:36;;;;;;;5.22;4.50;;;12.40;99.90;;;;;;5059320;28;20111;-75
2021/06/02 01:30:06;;;;;;;4.85;4.30;;;12.30;99.90;;;;;;5055366;28;20098;-74
2021/06/02 01:32:54;;;;;;;5.57;4.65;;;12.30;99.90;;;;;;5059534;28;20028;-74
2021/06/02 01:35:36;;;;;;;6.32;4.85;;;12.40;99.90;;;;;;5043087;28;20036;-73
2021/06/02 01:38:19;;;;;;;5.75;4.78;;;12.40;99.90;;;;;;5044923;28;20637;-74
2021/06/02 01:40:59;;;;;;;5.45;4.82;;;12.20;99.90;;;;;;5057142;28;20025;-74
2021/06/02 01:43:45;;;;;;;5.55;4.70;;;12.20;99.90;;;;;;5049430;28;20024;-74
2021/06/02 01:46:20;;;;;;;7.35;4.80;;;12.20;99.90;;;;;;5035800;28;20648;-74
2021/06/02 01:49:07;;;;;;;7.40;5.13;;;12.20;99.90;;;;;;5054282;28;20025;-74
2021/06/02 01:52:05;;;;;;;6.85;4.90;;;12.20;99.90;;;;;;5036570;28;20078;-74
2021/06/02 01:54:56;;;;;;;6.65;4.78;;;12.20;99.90;;;;;;5049837;28;20057;-74
2021/06/02 01:57:31;;;;;;;5.38;4.70;;;12.30;99.90;;;;;;5064300;28;20506;-74
2021/06/02 02:00:21;;;;;;;5.60;4.63;;;12.20;99.90;;;;;;5046212;28;20021;-74
2021/06/02 02:02:57;;;;;;;5.72;4.85;;;12.20;99.90;;;;;;5059842;28;20620;-75
2021/06/02 02:05:37;;;;;;;5.95;4.40;;;12.10;99.90;;;;;;5054052;28;20067;-75
2021/06/02 02:08:28;;;;;;;4.97;4.47;;;12.10;99.90;;;;;;5055887;28;20021;-75
2021/06/02 02:11:01;;;;;;;5.80;4.25;;;12.20;99.90;;;;;;4995218;28;20033;-74
2021/06/02 02:13:55;;;;;;;5.50;4.38;;;12.20;99.90;;;;;;5054061;28;20556;-75
2021/06/02 02:16:21;;;;;;;6.00;4.28;;;12.20;99.90;;;;;;5052686;28;20122;-75
2021/06/02 02:19:40;;;;;;;5.40;4.63;;;12.20;99.90;;;;;;5053487;28;20056;-75
2021/06/02 02:22:22;;;;;;;4.78;4.28;;;12.10;99.90;;;;;;5011207;28;20045;-73
2021/06/02 02:24:55;;;;;;;6.50;4.97;;;12.00;99.90;;;;;;5060169;28;20021;-74
2021/06/02 02:27:48;;;;;;;6.25;4.80;;;11.90;99.90;;;;;;5057023;28;20438;-74
2021/06/02 02:30:30;;;;;;;6.35;4.93;;;12.00;99.90;;;;;;5029785;28;20016;-74
2021/06/02 02:33:05;;;;;;;5.85;4.70;;;12.10;99.90;;;;;;5051834;28;20025;-73
2021/06/02 02:35:53;;;;;;;6.43;4.72;;;12.10;99.90;;;;;;5053922;28;20031;-74
2021/06/02 02:38:30;;;;;;;5.38;4.80;;;12.10;99.90;;;;;;5036507;28;20052;-74
2021/06/02 02:41:32;;;;;;;5.70;4.70;;;12.00;99.90;;;;;;5052478;28;20488;-74
2021/06/02 02:44:11;;;;;;;5.82;5.22;;;11.80;99.90;;;;;;5049014;28;20052;-73
2021/06/02 02:46:43;;;;;;;8.60;5.15;;;11.90;99.90;;;;;;5053000;28;20028;-73
2021/06/02 02:49:20;;;;;;;7.50;5.57;;;11.90;99.90;;;;;;5053991;28;20028;-73
2021/06/02 02:52:10;;;;;;;8.27;5.55;;;12.00;99.90;;;;;;5067096;28;20025;-73
2021/06/02 02:54:49;;;;;;;6.97;5.55;;;12.10;99.90;;;;;;5044957;28;20037;-73
2021/06/02 02:57:39;;;;;;;6.22;5.50;;;12.10;99.90;;;;;;5062709;28;20373;-72
2021/06/02 03:00:05;;;;;;;5.78;4.97;;;12.00;99.90;;;;;;5054267;28;20025;-72
2021/06/02 03:03:09;;;;;;;5.95;5.35;;;12.00;99.90;;;;;;5040189;28;20116;-72
2021/06/02 03:05:45;;;;;;;5.70;5.18;;;11.90;99.90;;;;;;5022810;28;20041;-73
2021/06/02 03:08:26;;;;;;;6.22;5.25;;;12.00;99.90;;;;;;5053565;28;20040;-73
2021/06/02 03:11:15;;;;;;;6.03;5.28;;;12.00;99.90;;;;;;5066977;28;20021;-73
2021/06/02 03:13:53;;;;;;;5.05;4.57;;;12.00;99.90;;;;;;5045177;28;20024;-75
2021/06/02 03:16:33;;;;;;;7.05;5.38;;;12.10;99.90;;;;;;5058948;28;20033;-74
2021/06/02 03:19:23;;;;;;;6.13;5.53;;;12.10;99.90;;;;;;5071822;28;20470;-74
2021/06/02 03:22:01;;;;;;;7.68;5.63;;;12.30;99.90;;;;;;5063026;28;20024;-74
2021/06/02 03:25:04;;;;;;;6.50;5.25;;;12.10;99.90;;;;;;5058765;28;20471;-75
2021/06/02 03:28:11;;;;;;;7.43;4.95;;;11.90;99.90;;;;;;5058657;28;20037;-74
2021/06/02 03:30:42;;;;;;;6.28;5.28;;;11.90;99.90;;;;;;5058854;28;20017;-73
2021/06/02 03:33:30;;;;;;;6.63;5.20;;;12.00;99.90;;;;;;5061946;28;20071;-73
2021/06/02 03:36:15;;;;;;;5.97;4.65;;;12.20;99.90;;;;;;5044959;28;20025;-73
2021/06/02 03:38:47;;;;;;;6.22;4.82;;;12.10;99.90;;;;;;5058825;28;20032;-74
2021/06/02 03:41:41;;;;;;;9.23;5.93;;;11.90;99.90;;;;;;5061817;28;20035;-74
2021/06/02 03:44:12;;;;;;;7.32;5.65;;;11.90;99.90;;;;;;5059104;28;20024;-74
2021/06/02 03:47:02;;;;;;;6.80;5.50;;;11.70;99.90;;;;;;5058652;28;20467;-74
2021/06/02 03:49:57;;;;;;;7.07;5.13;;;11.70;99.90;;;;;;5060568;28;20072;-74
2021/06/02 03:52:43;;;;;;;5.65;5.00;;;11.80;99.90;;;;;;5048042;28;20499;-75
2021/06/02 03:55:29;;;;;;;6.00;4.95;;;11.90;99.90;;;;;;5027122;28;20028;-76
2021/06/02 03:57:59;;;;;;;5.82;5.10;;;12.10;99.90;;;;;;5060134;28;20024;-75
2021/06/02 04:00:37;;;;;;;7.93;6.15;;;12.10;99.90;;;;;;5060626;28;20021;-75
2021/06/02 04:03:03;;;;;;;7.60;5.65;;;12.00;99.90;;;;;;5059497;28;20020;-74
2021/06/02 04:05:47;;;;;;;7.57;5.20;;;12.10;99.90;;;;;;5061867;28;20020;-76
2021/06/02 04:08:42;;;;;;;6.57;5.13;;;12.10;99.90;;;;;;5064968;28;20017;-75
2021/06/02 04:11:26;;;;;;;6.00;5.30;;;12.20;99.90;;;;;;5065139;28;20021;-74
2021/06/02 04:14:00;;;;;;;6.18;5.57;;;12.20;99.90;;;;;;5046063;28;20052;-74
2021/06/02 04:16:38;;;;;;;8.63;5.68;;;12.20;99.90;;;;;;5058348;28;20112;-74
2021/06/02 04:19:14;;;;;;;6.60;5.55;;;12.10;99.90;;;;;;5060257;28;20029;-74
2021/06/02 04:21:46;;;;;;;7.40;6.10;;;12.10;99.90;;;;;;5048041;28;20102;-75
2021/06/02 04:24:14;;;;;;;7.80;5.95;;;12.00;99.90;;;;;;5052396;28;20025;-75
2021/06/02 04:26:41;;;;;;;7.22;6.53;;;12.00;99.90;;;;;;5062241;28;20029;-76
2021/06/02 04:29:10;;;;;;;7.18;6.47;;;11.70;99.90;;;;;;5049987;28;20021;-75
2021/06/02 04:31:38;;;;;;;7.35;5.93;;;11.80;99.90;;;;;;5044222;28;20040;-75
2021/06/02 04:34:04;;;;;;;7.18;5.68;;;11.90;99.90;;;;;;5053609;28;20070;-74
2021/06/02 04:36:31;;;;;;;6.60;6.00;;;12.00;99.90;;;;;;5060735;28;20021;-73
2021/06/02 04:38:58;;;;;;;9.40;6.50;;;12.10;99.90;;;;;;5038384;28;20029;-74
2021/06/02 04:41:26;;;;;;;8.00;6.35;;;12.10;99.90;;;;;;5060856;28;20021;-73
2021/06/02 04:43:57;;;;;;;6.53;5.80;;;12.10;99.90;;;;;;5053201;28;20055;-74
2021/06/02 04:46:23;;;;;;;12.18;6.35;;;12.30;99.90;;;;;;5065383;28;20039;-74
2021/06/02 04:48:51;;;;;;;6.40;5.80;;;12.30;99.90;;;;;;5039032;28;20438;-75
2021/06/02 04:51:35;;;;;;;6.35;4.97;;;12.40;99.90;;;;;;5045092;28;20017;-74
2021/06/02 04:54:38;;;;;;;6.65;5.25;;;12.40;99.90;;;;;;5038688;28;20021;-75
2021/06/02 04:57:15;;;;;;;8.77;5.30;;;12.60;99.90;;;;;;5037601;28;20167;-75
2021/06/02 05:00:11;;;;;;;9.80;5.25;;;12.60;99.90;;;;;;5055123;28;20397;-75
2021/06/02 05:03:18;;;;;;;6.13;4.77;;;12.60;99.90;;;;;;5055570;28;20111;-75
2021/06/02 05:06:05;;;;;;;8.68;5.22;;;12.80;99.90;;;;;;5001417;28;20390;-74
2021/06/02 05:09:02;;;;;;;6.70;5.50;;;12.90;99.90;;;;;;5035054;28;20536;-74
2021/06/02 05:12:01;;;;;;;8.20;5.90;;;13.20;99.90;;;;;;5017263;28;20029;-74
2021/06/02 05:15:11;;;;;;;6.78;5.55;;;13.00;99.90;;;;;;5065759;28;20115;-74
2021/06/02 05:18:18;;;;;;;8.02;6.22;;;13.00;99.90;;;;;;5068289;28;20027;-73
2021/06/02 05:24:24;;;;;;;7.15;6.45;;;12.60;99.90;;;;;;5067725;28;20115;-74
2021/06/02 05:27:20;;;;;;;7.68;6.22;;;12.70;99.90;;;;;;5035254;28;20037;-73
2021/06/02 05:30:02;;;;;;;7.38;6.05;;;12.80;99.90;;;;;;5034985;28;20047;-73
2021/06/02 05:33:05;;;;;;;9.50;6.18;;;12.70;99.90;;;;;;5061403;28;20059;-73
2021/06/02 05:36:04;;;;;;;6.93;6.25;;;12.80;99.90;;;;;;5074470;28;20086;-74
2021/06/02 05:38:57;;;;;;;7.38;6.10;;;12.80;99.90;;;;;;5060912;28;20032;-73
2021/06/02 05:41:53;;;;;;;7.10;6.40;;;13.10;99.90;;;;;;5062928;28;20494;-73
2021/06/02 05:44:57;;;;;;;8.15;5.68;;;13.30;99.90;;;;;;5034462;28;20487;-73
2021/06/02 05:47:49;;;;;;;7.88;5.78;;;13.40;99.90;;;;;;5048782;28;20068;-73
2021/06/02 05:50:33;;;;;;;6.53;5.75;;;13.50;99.90;;;;;;5060657;28;20033;-73
2021/06/02 05:53:36;;;;;;;8.38;6.20;;;13.60;99.90;;;;;;5060805;28;20025;-71
2021/06/02 05:56:11;;;;;;;7.57;6.10;;;13.60;99.90;;;;;;5053349;28;20017;-74
2021/06/02 05:59:03;;;;;;;13.15;6.72;;;13.60;99.90;;;;;;5048720;28;20021;-73
2021/06/02 06:01:58;;;;;;;8.15;5.78;;;13.70;99.90;;;;;;5061369;28;20009;-74
2021/06/02 06:04:42;;;;;;;8.30;6.07;;;13.70;99.90;;;;;;5043638;28;20043;-73
2021/06/02 06:07:50;;;;;;;7.25;5.72;;;13.60;99.90;;;;;;5054113;28;20022;-73
2021/06/02 06:11:04;;;;;;;9.45;5.63;;;13.80;99.90;;;;;;5044666;28;20028;-73
2021/06/02 06:13:51;;;;;;;6.88;6.18;;;13.90;99.90;;;;;;5052126;28;20032;-72
2021/06/02 06:16:32;;;;;;;10.90;5.35;;;14.00;99.90;;;;;;5068219;28;20025;-73
2021/06/02 06:19:09;;;;;;;7.35;5.68;;;14.30;99.90;;;;;;5036635;28;20047;-72
2021/06/02 06:21:50;;;;;;;9.20;6.18;;;14.50;99.90;;;;;;5073619;28;20025;-73
2021/06/02 06:24:21;;;;;;;8.80;5.88;;;14.70;99.90;;;;;;5073280;28;20024;-69
2021/06/02 06:26:57;;;;;;;6.20;5.18;;;14.80;99.90;;;;;;5055265;28;20027;-70
2021/06/02 06:29:40;;;;;;;8.60;6.00;;;15.10;99.90;;;;;;5066868;28;20032;-73
2021/06/02 06:32:07;;;;;;;8.40;5.65;;;15.30;99.90;;;;;;5069267;28;20028;-73
2021/06/02 06:34:34;;;;;;;7.70;5.72;;;15.50;99.90;;;;;;5064406;28;20027;-73
2021/06/02 06:37:01;;;;;;;7.30;5.43;;;15.60;99.90;;;;;;5048824;28;20107;-73
2021/06/02 06:40:04;;;;;;;6.57;4.68;;;15.80;99.90;;;;;;5035336;28;20025;-73
2021/06/02 06:42:37;;;;;;;6.18;4.28;;;16.00;99.90;;;;;;5048983;28;20052;-73
2021/06/02 06:45:12;;;;;;;5.55;4.43;;;16.20;99.90;;;;;;5051023;28;20086;-73
2021/06/02 06:47:39;;;;;;;6.93;5.45;;;16.30;99.90;;;;;;5063307;28;20025;-73
2021/06/02 06:50:09;;;;;;;6.80;5.05;;;16.30;99.90;;;;;;5048688;28;20029;-72
2021/06/02 06:52:36;;;;;;;7.78;5.22;;;16.20;99.90;;;;;;5063885;28;20024;-72
2021/06/02 06:55:05;;;;;;;8.25;5.18;;;16.30;99.90;;;;;;5042015;28;20025;-72
2021/06/02 06:57:33;;;;;;;7.93;4.47;;;16.40;99.90;;;;;;5053771;28;20043;-72
2021/06/02 07:00:00;;;;;;;5.45;4.40;;;16.50;99.90;;;;;;5054091;28;20492;-70
2021/06/02 07:02:27;;;;;;;7.35;3.97;;;16.80;99.90;;;;;;5053023;28;20025;-73
2021/06/02 07:04:53;;;;;;;5.97;3.75;;;17.00;99.90;;;;;;5066129;28;20032;-72
2021/06/02 07:07:19;;;;;;;3.90;3.60;;;17.20;99.90;;;;;;5046252;28;20024;-72
2021/06/02 07:09:45;;;;;;;7.32;4.40;;;17.30;99.90;;;;;;5058725;28;20020;-74
2021/06/02 07:12:14;;;;;;;8.88;4.60;;;17.50;99.90;;;;;;5060650;28;20055;-72
2021/06/02 07:14:41;;;;;;;7.15;4.55;;;17.40;99.90;;;;;;5051511;28;20062;-72
2021/06/02 07:17:07;;;;;;;8.55;4.40;;;17.30;99.90;;;;;;5046018;28;20504;-73
2021/06/02 07:19:37;;;;;;;7.47;4.50;;;17.30;99.90;;;;;;5071850;28;20031;-72
2021/06/02 07:22:03;;;;;;;7.20;4.07;;;17.50;99.90;;;;;;5072223;28;20017;-73
2021/06/02 07:24:29;;;;;;;6.70;4.20;;;17.70;99.90;;;;;;5072080;28;20512;-72
2021/06/02 07:26:56;;;;;;;7.35;4.43;;;17.90;99.90;;;;;;5071943;28;20086;-72
2021/06/02 07:29:23;;;;;;;5.80;3.97;;;18.00;99.90;;;;;;5071789;28;20020;-73
2021/06/02 07:31:49;;;;;;;4.93;3.88;;;18.20;99.90;;;;;;5072029;28;20025;-72
2021/06/02 07:34:15;;;;;;;4.70;3.63;;;18.30;99.90;;;;;;5071916;28;20146;-73
2021/06/02 07:36:41;;;;;;;6.07;3.67;;;18.40;99.90;;;;;;5071837;28;20032;-72
2021/06/02 07:39:07;;;;;;;5.22;3.88;;;18.40;99.90;;;;;;5072093;28;20096;-72
2021/06/02 07:41:32;;;;;;;5.18;3.65;;;18.40;99.90;;;;;;5058497;28;20108;-73
2021/06/02 07:43:58;;;;;;;7.07;4.05;;;18.60;99.90;;;;;;5040409;28;20024;-72
2021/06/02 07:46:24;;;;;;;4.35;3.05;;;18.80;99.90;;;;;;5053319;28;20100;-72
2021/06/02 07:48:51;;;;;;;5.53;2.80;;;19.00;99.90;;;;;;5034412;28;20075;-72
2021/06/02 07:51:17;;;;;;;5.72;2.85;;;19.20;99.90;;;;;;5051575;28;20021;-72
2021/06/02 07:53:42;;;;;;;3.63;2.80;;;19.20;99.90;;;;;;5071367;28;20484;-73
2021/06/02 07:56:08;;;;;;;3.22;2.70;;;19.30;99.90;;;;;;5053496;28;20082;-73
2021/06/02 07:58:33;;;;;;;5.38;3.08;;;19.40;99.90;;;;;;5069609;28;20029;-72
2021/06/02 08:00:59;;;;;;;3.80;2.88;;;19.40;99.90;;;;;;5056119;28;20041;-73
2021/06/02 08:03:25;;;;;;;4.78;3.03;;;19.50;99.90;;;;;;5050699;28;20146;-73
2021/06/02 08:05:50;;;;;;;4.22;3.08;;;19.60;99.90;;;;;;5053361;28;20033;-72
2021/06/02 08:08:17;;;;;;;4.38;2.85;;;19.60;99.90;;;;;;5051533;28;20484;-73
2021/06/02 08:10:42;;;;;;;4.50;3.13;;;19.70;99.90;;;;;;5033494;28;20397;-73
2021/06/02 08:13:08;;;;;;;3.45;2.83;;;19.80;99.90;;;;;;5064901;28;20029;-73
2021/06/02 08:15:34;;;;;;;3.65;2.72;;;19.90;99.90;;;;;;5064699;28;20055;-73
2021/06/02 08:17:59;;;;;;;4.18;2.95;;;20.00;99.90;;;;;;5051689;28;20115;-73
2021/06/02 08:20:25;;;;;;;5.35;3.20;;;20.10;99.90;;;;;;5053103;28;20033;-73
2021/06/02 08:22:50;;;;;;;4.25;2.70;;;20.10;99.90;;;;;;5057976;28;20029;-73
2021/06/02 08:25:17;;;;;;;3.65;2.40;;;20.10;99.90;;;;;;5058101;28;20025;-73
2021/06/02 08:27:44;;;;;;;2.88;2.67;;;20.20;99.90;;;;;;5071468;28;20013;-72
2021/06/02 08:30:11;;;;;;;4.05;2.80;;;20.50;99.90;;;;;;5057826;28;20426;-72
2021/06/02 08:32:37;;;;;;;3.92;2.53;;;20.60;99.90;;;;;;5063905;28;20056;-73
2021/06/02 08:35:05;;;;;;;5.32;2.60;;;20.80;99.90;;;;;;5078111;28;20075;-73
2021/06/02 08:37:30;;;;;;;3.50;2.88;;;20.60;99.90;;;;;;5057872;28;20497;-73
2021/06/02 08:39:56;;;;;;;4.93;2.85;;;20.60;99.90;;;;;;5057896;28;20098;-73
2021/06/02 08:42:22;;;;;;;4.75;2.75;;;20.70;99.90;;;;;;5071432;28;20477;-71
2021/06/02 08:44:47;;;;;;;3.13;2.35;;;20.80;99.90;;;;;;5070272;28;20067;-73
2021/06/02 08:47:13;;;;;;;3.70;2.47;;;21.00;99.90;;;;;;5064204;28;20029;-72
2021/06/02 08:49:38;;;;;;;3.10;2.50;;;21.10;99.90;;;;;;5047533;28;20021;-73
2021/06/02 08:52:06;;;;;;;2.67;2.47;;;21.30;99.90;;;;;;5071573;28;20021;-73
2021/06/02 08:54:32;;;;;;;3.63;2.50;;;21.60;99.90;;;;;;5057784;28;20480;-74
2021/06/02 08:57:04;;;;;;;3.45;2.60;;;21.70;99.90;;;;;;5064495;28;20059;-73
2021/06/02 08:59:30;;;;;;;4.07;2.65;;;21.70;96.70;;;;;;5059680;28;20028;-73
2021/06/02 09:01:57;;;;;;;3.13;2.80;;;21.60;96.60;;;;;;5070490;28;20032;-73
2021/06/02 09:04:22;;;;;;;3.88;2.78;;;21.60;98.20;;;;;;5051183;28;20044;-73
2021/06/02 09:06:48;;;;;;;5.50;2.97;;;21.70;97.80;;;;;;5052483;28;20064;-72
2021/06/02 09:09:16;;;;;;;3.85;3.00;;;21.80;98.60;;;;;;5057498;28;20072;-73
2021/06/02 09:11:44;;;;;;;5.40;2.55;;;22.10;98.30;;;;;;5056583;28;20028;-73
2021/06/02 09:14:26;;;;;;;4.05;2.53;;;22.20;97.70;;;;;;5077650;28;20354;-73
2021/06/02 09:16:54;;;;;;;3.25;2.53;;;22.10;95.60;;;;;;5067614;28;20362;-73
2021/06/02 09:19:35;;;;;;;3.05;2.40;;;22.20;96.80;;;;;;5074257;28;20036;-74
2021/06/02 09:22:02;;;;;;;4.05;2.63;;;22.40;96.20;;;;;;5047096;28;20634;-73
2021/06/02 09:24:52;;;;;;;3.60;2.55;;;22.30;96.00;;;;;;5076642;28;20104;-72
2021/06/02 09:27:39;;;;;;;5.13;2.70;;;22.40;94.00;;;;;;5061780;28;20104;-73
2021/06/02 09:30:06;;;;;;;5.00;2.50;;;22.40;95.90;;;;;;5068992;28;20051;-73
2021/06/02 09:32:41;;;;;;;4.53;2.70;;;22.20;95.50;;;;;;5075548;28;20583;-73
2021/06/02 09:35:07;;;;;;;2.92;2.55;;;22.20;95.40;;;;;;5061367;28;20029;-73
2021/06/02 09:37:47;;;;;;;4.03;2.70;;;22.20;96.40;;;;;;5073726;28;20021;-73
2021/06/02 09:40:20;;;;;;;6.30;2.40;;;22.30;96.30;;;;;;5060483;28;20024;-72
2021/06/02 09:42:46;;;;;;;2.63;2.20;;;22.30;94.50;;;;;;5074031;28;20029;-72
2021/06/02 09:45:13;;;;;;;3.95;2.70;;;22.40;92.90;;;;;;5055487;28;20020;-73
2021/06/02 09:48:01;;;;;;;2.55;2.10;;;22.20;93.40;;;;;;5073750;28;20500;-73
2021/06/02 09:50:38;;;;;;;4.78;2.80;;;22.60;91.70;;;;;;5039023;28;20453;-74
2021/06/02 09:53:09;;;;;;;4.53;2.50;;;22.80;93.30;;;;;;5067390;28;20024;-73
2021/06/02 09:55:38;;;;;;;5.65;2.85;;;23.00;93.40;;;;;;5045309;28;20033;-72
2021/06/02 09:58:07;;;;;;;4.68;2.38;;;23.00;92.30;;;;;;5065335;28;20028;-73
2021/06/02 10:00:34;;;;;;;3.47;2.10;;;23.20;91.50;;;;;;5055793;28;20484;-73
2021/06/02 10:03:05;;;;;;;3.45;2.45;;;23.40;90.20;;;;;;5054274;28;20040;-73
2021/06/02 10:05:42;;;;;;;4.63;2.53;;;23.20;90.00;;;;;;5066093;28;20025;-73
2021/06/02 10:08:12;;;;;;;4.28;2.58;;;23.10;89.00;;;;;;5056895;28;20027;-73
2021/06/02 10:10:40;;;;;;;3.53;2.60;;;23.00;91.30;;;;;;5061426;28;20028;-73
2021/06/02 10:13:12;;;;;;;3.40;2.47;;;23.10;91.50;;;;;;5067019;28;20086;-73
2021/06/02 10:15:53;;;;;;;4.47;2.33;;;23.20;91.60;;;;;;5053468;28;20025;-73
2021/06/02 10:18:39;;;;;;;4.20;2.83;;;23.10;91.40;;;;;;5042186;28;20016;-73
2021/06/02 10:21:11;;;;;;;4.15;2.15;;;23.20;89.30;;;;;;5066550;28;20032;-73
2021/06/02 10:23:45;;;;;;;4.45;2.28;;;23.30;89.30;;;;;;5065757;28;20025;-73
2021/06/02 10:26:13;;;;;;;4.32;2.40;;;23.30;87.10;;;;;;5066855;28;20393;-73
2021/06/02 10:28:40;;;;;;;3.58;2.22;;;23.30;88.20;;;;;;5066520;28;20072;-73
2021/06/02 10:31:08;;;;;;;4.13;2.38;;;23.40;89.40;;;;;;5052947;28;20547;-72
2021/06/02 10:33:34;;;;;;;3.80;2.20;;;23.30;90.10;;;;;;5041450;28;20070;-72
2021/06/02 10:36:02;;;;;;;3.47;2.35;;;23.50;87.60;;;;;;5060490;28;20081;-73
2021/06/02 10:38:47;;;;;;;2.40;1.92;;;23.60;88.70;;;;;;5059753;28;20184;-73
2021/06/02 10:41:27;;;;;;;2.70;2.08;;;23.70;87.40;;;;;;5073030;28;20055;-73
2021/06/02 10:44:00;;;;;;;4.35;2.13;;;23.80;86.50;;;;;;5072305;28;20469;-73
2021/06/02 10:46:27;;;;;;;4.38;2.15;;;23.80;83.80;;;;;;5072766;28;20437;-73
2021/06/02 10:48:55;;;;;;;2.42;2.03;;;24.10;82.10;;;;;;5072670;28;20051;-73
2021/06/02 10:51:39;;;;;;;4.25;2.22;;;24.20;79.20;;;;;;5054433;28;20422;-73
2021/06/02 10:54:07;;;;;;;3.47;1.80;;;24.40;82.80;;;;;;5035367;28;20041;-73
2021/06/02 10:56:33;;;;;;;3.05;1.90;;;24.10;78.40;;;;;;5055840;28;20103;-73
2021/06/02 10:59:00;;;;;;;3.72;2.10;;;24.10;79.70;;;;;;5072510;28;20107;-73
2021/06/02 11:01:29;;;;;;;3.92;2.25;;;24.10;78.30;;;;;;5066095;28;20014;-72
2021/06/02 11:04:08;;;;;;;3.65;2.20;;;24.10;78.80;;;;;;5052557;28;20031;-73
2021/06/02 11:06:40;;;;;;;4.18;2.40;;;24.50;79.80;;;;;;5065968;28;20100;-73
2021/06/02 11:09:12;;;;;;;2.30;2.10;;;24.40;81.10;;;;;;5052289;28;20444;-73
2021/06/02 11:11:43;;;;;;;3.03;2.17;;;24.30;79.60;;;;;;5047530;28;20062;-72
2021/06/02 11:14:15;;;;;;;4.45;2.17;;;24.70;80.80;;;;;;5072400;28;20097;-73
2021/06/02 11:16:57;;;;;;;3.10;2.20;;;24.50;75.90;;;;;;5063429;28;20096;-73
2021/06/02 11:19:27;;;;;;;2.75;2.00;;;24.60;78.90;;;;;;5056801;28;20040;-73
2021/06/02 11:21:53;;;;;;;3.05;2.10;;;24.90;79.80;;;;;;5060207;28;20083;-74
2021/06/02 11:24:34;;;;;;;2.50;2.10;;;24.80;76.20;;;;;;5065604;28;20024;-72
2021/06/02 11:27:15;;;;;;;3.42;2.00;;;25.10;75.90;;;;;;5052532;28;20017;-73
2021/06/02 11:32:28;;;;;;;2.40;2.20;;;24.80;77.80;;;;;;5065404;28;20037;-73
2021/06/02 11:35:01;;;;;;;3.33;2.20;;;24.80;76.70;;;;;;5052004;28;20024;-73
2021/06/02 11:37:31;;;;;;;2.95;2.53;;;24.50;84.20;;;;;;5058797;28;20020;-73
2021/06/02 11:40:03;;;;;;;2.72;2.33;;;25.40;78.70;;;;;;5071730;28;20107;-73
2021/06/02 11:42:41;;;;;;;5.70;2.42;;;25.30;74.80;;;;;;5071850;28;20020;-73
2021/06/02 11:45:15;;;;;;;3.03;2.08;;;25.70;76.50;;;;;;5068564;28;20020;-73
2021/06/02 11:47:46;;;;;;;3.35;2.30;;;25.60;75.40;;;;;;5062665;28;20027;-73
2021/06/02 11:50:14;;;;;;;4.70;2.45;;;25.60;77.70;;;;;;5071673;28;20377;-73
2021/06/02 11:52:41;;;;;;;4.10;2.50;;;26.20;77.80;;;;;;5053892;28;20051;-73
2021/06/02 11:55:10;;;;;;;5.15;2.38;;;26.00;78.40;;;;;;5061707;28;20028;-73
2021/06/02 11:57:38;;;;;;;2.88;2.03;;;26.50;74.70;;;;;;5051622;28;20021;-73
2021/06/02 12:00:07;;;;;;;3.72;2.45;;;26.40;73.90;;;;;;5057176;28;20028;-73
2021/06/02 12:02:34;;;;;;;4.25;2.17;;;26.30;76.00;;;;;;5060519;28;20035;-73
2021/06/02 12:05:27;;;;;;;4.63;2.47;;;26.60;75.30;;;;;;5036265;28;20021;-73
2021/06/02 12:08:00;;;;;;;2.78;2.30;;;26.30;73.60;;;;;;5065044;28;20027;-74
2021/06/02 12:10:57;;;;;;;3.15;2.30;;;26.50;71.90;;;;;;5044540;28;20024;-73
2021/06/02 12:13:23;;;;;;;4.30;1.98;;;26.40;72.80;;;;;;5062686;28;20021;-73
2021/06/02 12:16:09;;;;;;;2.22;1.90;;;26.60;73.20;;;;;;5058366;28;20029;-73
2021/06/02 12:18:44;;;;;;;2.10;1.90;;;26.70;74.80;;;;;;5052421;28;20039;-72
2021/06/02 12:21:13;;;;;;;2.90;2.17;;;27.20;72.20;;;;;;5057301;28;20028;-73
2021/06/02 12:24:00;;;;;;;2.80;2.33;;;27.50;70.50;;;;;;5058222;28;20489;-73
2021/06/02 12:26:28;;;;;;;;;;;27.60;69.50;;;;;;5049859;28;20020;-73
2021/06/02 12:28:55;;;;;;;2.38;2.10;;;27.60;70.00;;;;;;5053352;28;19904;-73
2021/06/02 12:31:40;;;;;;;4.28;2.15;;;27.80;73.20;;;;;;5053086;28;20104;-73
2021/06/02 12:34:20;;;;;;;2.50;2.17;;;28.10;70.30;;;;;;5057793;28;20384;-73
2021/06/02 12:36:57;;;;;;;2.30;2.10;;;27.90;67.60;;;;;;5057698;28;20025;-74
2021/06/02 12:39:27;;;;;;;2.50;2.30;;;27.50;67.00;;;;;;5062842;28;20527;-73
2021/06/02 12:41:53;;;;;;;2.67;2.28;;;27.60;67.80;;;;;;5066884;28;20032;-73
2021/06/02 12:44:24;;;;;;;3.15;2.35;;;27.60;68.80;;;;;;5062227;28;20013;-73
2021/06/02 12:47:08;;;;;;;3.65;2.25;;;27.70;69.80;;;;;;5054174;28;20496;-73
2021/06/02 12:49:38;;;;;;;3.72;2.55;;;27.60;70.50;;;;;;5072939;28;20380;-73
2021/06/02 12:52:04;;;;;;;3.70;2.20;;;27.50;69.50;;;;;;5071563;28;20012;-73
2021/06/02 12:54:31;;;;;;;3.40;2.20;;;27.10;71.30;;;;;;5058446;28;20052;-72
2021/06/02 12:56:58;;;;;;;3.08;2.38;;;26.80;73.80;;;;;;5037890;28;20018;-73
2021/06/02 12:59:32;;;;;;;2.25;2.05;;;27.50;72.00;;;;;;5051274;28;20081;-72
2021/06/02 13:01:59;;;;;;;3.25;1.88;;;28.20;71.00;;;;;;5050956;28;20024;-74
2021/06/02 13:04:26;;;;;;;3.17;2.20;;;29.00;67.90;;;;;;5065708;28;20074;-73
2021/06/02 13:06:53;;;;;;;2.63;2.22;;;29.20;66.90;;;;;;5072056;28;20115;-73
2021/06/02 13:09:21;;;;;;;5.82;2.20;;;29.00;68.20;;;;;;5067267;28;20032;-73
2021/06/02 13:11:46;;;;;;;2.85;2.65;;;29.30;66.20;;;;;;5062964;28;20047;-73
2021/06/02 13:14:12;;;;;;;2.55;2.35;;;29.60;66.60;;;;;;5074724;28;20021;-73
2021/06/02 13:16:48;;;;;;;3.00;2.20;;;28.90;67.60;;;;;;5074634;28;20027;-73
2021/06/02 13:19:14;;;;;;;2.95;2.42;;;28.40;66.50;;;;;;5074419;28;20023;-73
2021/06/02 13:21:49;;;;;;;3.83;2.40;;;28.20;66.90;;;;;;5074604;28;20033;-73
2021/06/02 13:24:19;;;;;;;5.53;2.70;;;29.00;67.40;;;;;;5074472;28;20547;-73
2021/06/02 13:26:59;;;;;;;2.55;2.20;;;29.50;64.30;;;;;;5074506;28;20283;-73
2021/06/02 13:29:25;;;;;;;2.50;2.30;;;30.10;67.10;;;;;;5074099;28;20029;-73
2021/06/02 13:31:52;;;;;;;2.50;2.30;;;29.60;64.50;;;;;;5074491;28;20028;-73
2021/06/02 13:34:38;;;;;;;3.30;2.25;;;30.00;64.90;;;;;;5056363;28;20048;-73